Huachuca City, AZ (85616)

03:30 PM MST del 30 Agosto 2016 (GMT -0700)
SE AZ RV Rentals ~ Hwy 82 Whetstone AZ | | Change Station

Alt. 4367 ft 31.69 °N, 110.34 °W | Updated 1 minute ago

Partly Cloudy
Parzialmente nuvoloso
90.3 °F
Sembra 88 °F
N
8.9
Vento Variabile Vento da ESE

Oggi
Massima -- | Minima -- °F
--% Possibilità di precip.
Ieri
Massima -- | Minima -- °F
Precip. -- in
Pressione 29.86 in
Visibilità 10.0 miglia
Nuvole Alcuni 8000 ft
Indice di calore 88 °F
Punto di rugiada 53 °F
Umidità 28%
Piovosità 0.00 in
Spessore del manto nevoso Non disponibile.
5:56 AM 6:46 PM
Luna calante, 2% visible
METAR KFHU 302158Z AUTO 08010G16KT 10SM FEW080 31/09 A3010 RMK AO2 SLP112 T03120089
Pressione 29.86 in
Visibilità 10.0 miglia
Nuvole Alcuni 8000 ft
Indice di calore 88 °F
Punto di rugiada 53 °F
Umidità 28%
Piovosità 0.00 in
Spessore del manto nevoso Non disponibile.
5:56 AM 6:46 PM
Luna calante, 2% visible
METAR KFHU 302158Z AUTO 08010G16KT 10SM FEW080 31/09 A3010 RMK AO2 SLP112 T03120089

10-Day Weather Forecast

Almanac

Astronomia

Aug. 30, 2016 Alba Tramonto
Ora attuale
Crepuscolo civile
Crepuscolo nautico
Crepuscolo astronomico
Luna
Estensione della luce visibile
Lunghezza del giorno
Tomorrow will be .
, % of the Moon is Illuminated

Gli estremi di oggi

State Highs State Lows

Community

WunderPhotos

Upload Photos

1,935,911 foto caricate!

WunderBlog® & News

Nearby

Qualità dell'aria

  Qualità dell'aria Indice AQ Inquinante
Not available.

Profondità neve

Stazione Profondità Altitudine

Attività sismica

Città  Distanza Mag. Data & Ora
Minimo Magnitudo Mostrato è 2.5.

Temperature delle acque costiere

Località Temperatura

Stations

Stazioni meteo nelle vicinanze

Ubicazione della stazione Temp. Raffreddamento del vento Punto di rugiada Umidità Vento Precip. Alt. Aggiornato Tipo
                   

Watches & Warnings

There are currently no watches in effect.